Naples, Florida
Current Conditions -  °F | °C
As of 5:53 PM on Wednesday 22 Oct 2014 (Local Time) from KAPF Reporting Station
Clear Clear  
Wind Chill: 81°   Ceiling: Unl
Heat Index: 84°   Visibility: 10mi
Dew Point: 69°   Wind: 6mph
Humidity: 67%   Direction: 140°SE
Pressure: 29.91"   Gusts: NA
Location:  26.14°N, 81.79°W
Report Text: KAPF 222153Z 14005KT 10SM CLR 27/21 A2991 RMK AO2 SLP126 T02720206
Loading
Personal Weather Stations






























Interactive Weather Map
Tropical Storm Tracking
New forecast layout! Learn more

10-Day Weather Forecast

Advertisements
Track Severe Weather on mobile